createdAt,value
2018-09-02T00:00:07.271Z,99.90
2018-09-02T00:02:35.456Z,99.90
2018-09-02T00:05:03.604Z,99.90
2018-09-02T00:07:31.760Z,99.90
2018-09-02T00:09:59.944Z,99.90
2018-09-02T00:12:28.104Z,99.90
2018-09-02T00:14:56.264Z,99.90
2018-09-02T00:17:24.461Z,99.90
2018-09-02T00:19:52.613Z,99.90
2018-09-02T00:22:20.804Z,99.90
2018-09-02T00:24:49.002Z,99.90
2018-09-02T00:27:17.233Z,99.90
2018-09-02T00:29:45.400Z,99.90
2018-09-02T00:32:13.662Z,99.90
2018-09-02T00:34:41.828Z,99.90
2018-09-02T00:37:09.982Z,99.90
2018-09-02T00:39:38.155Z,99.90
2018-09-02T00:42:06.314Z,99.90
2018-09-02T00:44:34.472Z,99.90
2018-09-02T00:47:02.767Z,99.90
2018-09-02T00:49:30.932Z,99.90
2018-09-02T00:51:59.088Z,99.90
2018-09-02T00:54:27.241Z,99.90
2018-09-02T00:56:55.439Z,99.90
2018-09-02T00:59:23.612Z,99.90
2018-09-02T01:01:51.796Z,99.90
2018-09-02T01:04:19.944Z,99.90
2018-09-02T01:06:48.113Z,99.90
2018-09-02T01:09:16.296Z,99.90
2018-09-02T01:11:44.459Z,99.90
2018-09-02T01:14:12.747Z,99.90
2018-09-02T01:16:40.996Z,99.90
2018-09-02T01:19:09.145Z,99.90
2018-09-02T01:21:37.330Z,99.90
2018-09-02T01:24:05.496Z,99.90
2018-09-02T01:26:33.656Z,99.90
2018-09-02T01:29:01.826Z,99.90
2018-09-02T01:31:30.322Z,99.90
2018-09-02T01:33:58.488Z,99.90
2018-09-02T01:36:26.636Z,99.90
2018-09-02T01:38:54.812Z,99.90
2018-09-02T01:41:22.972Z,99.90
2018-09-02T01:43:51.139Z,99.90
2018-09-02T01:46:19.307Z,99.90
2018-09-02T01:48:47.456Z,99.90
2018-09-02T01:51:15.636Z,99.90
2018-09-02T01:53:43.796Z,99.90
2018-09-02T01:56:12.419Z,99.90
2018-09-02T01:58:40.584Z,99.90
2018-09-02T02:01:08.744Z,99.90
2018-09-02T02:03:36.913Z,99.90
2018-09-02T02:06:05.083Z,99.90
2018-09-02T02:08:33.240Z,99.90
2018-09-02T02:11:01.413Z,99.90
2018-09-02T02:13:29.572Z,99.90
2018-09-02T02:15:57.721Z,99.90
2018-09-02T02:18:25.888Z,99.90
2018-09-02T02:20:54.050Z,99.90
2018-09-02T02:23:22.213Z,99.90
2018-09-02T02:25:50.375Z,99.90
2018-09-02T02:28:18.513Z,99.90
2018-09-02T02:30:46.670Z,99.90
2018-09-02T02:33:14.824Z,99.90
2018-09-02T02:35:42.984Z,99.90
2018-09-02T02:38:11.176Z,99.90
2018-09-02T02:40:39.355Z,99.90
2018-09-02T02:43:07.507Z,99.90
2018-09-02T02:45:35.666Z,99.90
2018-09-02T02:48:03.833Z,99.90
2018-09-02T02:50:31.988Z,99.90
2018-09-02T02:53:04.872Z,99.90
2018-09-02T02:55:34.288Z,99.90
2018-09-02T02:58:02.876Z,99.90
2018-09-02T03:00:31.417Z,99.90
2018-09-02T03:02:59.576Z,99.90
2018-09-02T03:05:27.832Z,99.90
2018-09-02T03:07:56.080Z,99.90
2018-09-02T03:10:24.236Z,99.90
2018-09-02T03:12:52.392Z,99.90
2018-09-02T03:15:20.548Z,99.90
2018-09-02T03:17:48.780Z,99.90
2018-09-02T03:20:17.005Z,99.90
2018-09-02T03:22:46.143Z,99.90
2018-09-02T03:25:14.329Z,99.90
2018-09-02T03:27:42.488Z,99.90
2018-09-02T03:30:11.048Z,99.90
2018-09-02T03:32:39.203Z,99.90
2018-09-02T03:35:07.380Z,99.90
2018-09-02T03:37:35.548Z,99.90
2018-09-02T03:40:03.712Z,99.90
2018-09-02T03:42:31.915Z,99.90
2018-09-02T03:45:00.052Z,99.90
2018-09-02T03:47:28.195Z,99.90
2018-09-02T03:49:56.352Z,99.90
2018-09-02T03:52:24.517Z,99.90
2018-09-02T03:54:52.680Z,99.90
2018-09-02T03:57:20.832Z,99.90
2018-09-02T03:59:48.984Z,99.90
2018-09-02T04:02:17.144Z,99.90
2018-09-02T04:04:45.286Z,99.90
2018-09-02T04:07:13.445Z,99.90
2018-09-02T04:09:41.608Z,99.90
2018-09-02T04:12:09.773Z,99.90
2018-09-02T04:14:37.934Z,99.90
2018-09-02T04:17:06.085Z,99.90
2018-09-02T04:19:34.236Z,99.90
2018-09-02T04:22:02.405Z,99.90
2018-09-02T04:24:30.568Z,99.90
2018-09-02T04:26:58.724Z,99.90
2018-09-02T04:29:26.880Z,99.90
2018-09-02T04:31:57.359Z,99.90
2018-09-02T04:34:26.276Z,99.90
2018-09-02T04:36:54.747Z,99.90
2018-09-02T04:39:23.193Z,99.90
2018-09-02T04:41:51.621Z,99.90
2018-09-02T04:44:20.105Z,99.90
2018-09-02T04:46:49.230Z,99.90
2018-09-02T04:49:17.861Z,99.90
2018-09-02T04:51:46.290Z,99.90
2018-09-02T04:54:14.932Z,99.90
2018-09-02T04:56:43.497Z,99.90
2018-09-02T04:59:11.992Z,99.90
2018-09-02T05:01:40.405Z,99.90
2018-09-02T05:04:08.764Z,99.90
2018-09-02T05:06:37.242Z,99.90
2018-09-02T05:09:06.260Z,99.90
2018-09-02T05:11:34.773Z,99.90
2018-09-02T05:14:03.213Z,99.90
2018-09-02T05:16:31.833Z,99.90
2018-09-02T05:19:00.174Z,99.90
2018-09-02T05:21:28.546Z,99.90
2018-09-02T05:23:56.821Z,99.90
2018-09-02T05:26:25.160Z,99.90
2018-09-02T05:28:53.640Z,99.90
2018-09-02T05:31:22.111Z,99.90
2018-09-02T05:33:50.358Z,99.90
2018-09-02T05:36:18.721Z,99.90
2018-09-02T05:38:46.978Z,99.90
2018-09-02T05:41:15.214Z,99.90
2018-09-02T05:43:43.437Z,99.90
2018-09-02T05:46:11.652Z,99.90
2018-09-02T05:48:39.928Z,99.90
2018-09-02T05:51:08.239Z,99.90
2018-09-02T05:53:36.489Z,99.90
2018-09-02T05:56:04.855Z,99.90
2018-09-02T05:58:33.122Z,99.90
2018-09-02T06:01:01.376Z,99.90
2018-09-02T06:03:29.653Z,99.90
2018-09-02T06:05:57.876Z,99.90
2018-09-02T06:08:26.115Z,99.90
2018-09-02T06:10:54.351Z,99.90
2018-09-02T06:13:22.608Z,99.90
2018-09-02T06:15:50.853Z,99.90
2018-09-02T06:18:19.192Z,99.90
2018-09-02T06:20:47.447Z,99.90
2018-09-02T06:23:15.720Z,99.90
2018-09-02T06:25:44.015Z,99.90
2018-09-02T06:28:12.284Z,99.90
2018-09-02T06:30:40.565Z,99.90
2018-09-02T06:33:08.824Z,99.90
2018-09-02T06:35:37.136Z,99.90
2018-09-02T06:38:05.327Z,99.90
2018-09-02T06:40:33.558Z,99.90
2018-09-02T06:43:01.890Z,99.90
2018-09-02T06:45:30.149Z,99.90
2018-09-02T06:47:58.417Z,99.90
2018-09-02T06:50:26.670Z,99.90
2018-09-02T06:52:54.907Z,99.90
2018-09-02T06:55:23.156Z,99.90
2018-09-02T06:57:51.356Z,99.90
2018-09-02T07:00:19.690Z,99.90
2018-09-02T07:02:48.005Z,99.90
2018-09-02T07:05:16.268Z,99.90
2018-09-02T07:07:44.505Z,99.90
2018-09-02T07:10:12.752Z,99.90
2018-09-02T07:12:40.975Z,99.90
2018-09-02T07:15:09.256Z,99.90
2018-09-02T07:17:37.488Z,99.90
2018-09-02T07:20:05.755Z,99.90
2018-09-02T07:22:33.982Z,99.90
2018-09-02T07:25:02.257Z,99.90
2018-09-02T07:27:31.352Z,98.50
2018-09-02T07:29:59.616Z,99.90
2018-09-02T07:32:27.853Z,99.70
2018-09-02T07:34:56.135Z,97.40
2018-09-02T07:37:24.345Z,94.20
2018-09-02T07:39:52.625Z,92.10
2018-09-02T07:42:20.879Z,88.30
2018-09-02T07:44:49.132Z,90.30
2018-09-02T07:47:17.433Z,85.50
2018-09-02T07:49:45.641Z,81.20
2018-09-02T07:52:13.916Z,79.90
2018-09-02T07:54:42.115Z,76.50
2018-09-02T07:57:10.351Z,78.80
2018-09-02T07:59:38.530Z,83.80
2018-09-02T08:02:06.786Z,78.80
2018-09-02T08:04:35.018Z,71.10
2018-09-02T08:07:03.230Z,67.70
2018-09-02T08:09:31.437Z,67.00
2018-09-02T08:11:59.645Z,70.20
2018-09-02T08:14:27.886Z,60.00
2018-09-02T08:16:56.080Z,58.70
2018-09-02T08:19:24.327Z,65.70
2018-09-02T08:21:52.567Z,59.50
2018-09-02T08:24:20.796Z,55.20
2018-09-02T08:26:49.553Z,51.90
2018-09-02T08:29:17.778Z,52.50
2018-09-02T08:31:46.027Z,58.40
2018-09-02T08:34:14.336Z,58.40
2018-09-02T08:39:11.566Z,48.50
2018-09-02T08:41:41.031Z,48.10
2018-09-02T08:44:09.191Z,48.90
2018-09-02T08:46:37.693Z,48.20
2018-09-02T08:49:05.928Z,46.60
2018-09-02T08:51:34.084Z,47.50
2018-09-02T08:54:02.228Z,51.80
2018-09-02T08:58:58.304Z,60.80
2018-09-02T09:01:26.488Z,65.90
2018-09-02T09:03:54.671Z,68.20
2018-09-02T09:06:23.639Z,71.40
2018-09-02T09:08:52.153Z,69.50
2018-09-02T09:11:20.221Z,67.90
2018-09-02T09:13:48.784Z,66.10
2018-09-02T09:16:17.597Z,64.50
2018-09-02T09:18:45.856Z,62.90
2018-09-02T09:21:14.018Z,57.70
2018-09-02T09:23:42.167Z,58.30
2018-09-02T09:26:10.320Z,47.60
2018-09-02T09:28:38.473Z,47.60
2018-09-02T09:31:07.368Z,46.00
2018-09-02T09:33:35.516Z,41.30
2018-09-02T09:36:03.724Z,39.50
2018-09-02T09:38:31.871Z,37.40
2018-09-02T09:41:00.026Z,39.60
2018-09-02T09:43:28.521Z,40.90
2018-09-02T09:45:56.692Z,40.70
2018-09-02T09:48:24.808Z,39.10
2018-09-02T09:50:53.023Z,37.60
2018-09-02T09:53:21.180Z,36.90
2018-09-02T09:55:49.324Z,38.40
2018-09-02T09:58:17.480Z,39.40
2018-09-02T10:00:48.697Z,37.50
2018-09-02T10:03:17.270Z,38.60
2018-09-02T10:05:45.420Z,37.90
2018-09-02T10:08:13.632Z,36.60
2018-09-02T10:10:42.116Z,35.20
2018-09-02T10:13:10.289Z,35.90
2018-09-02T10:15:39.013Z,35.90
2018-09-02T10:18:07.464Z,41.00
2018-09-02T10:20:35.552Z,40.00
2018-09-02T10:23:04.143Z,40.50
2018-09-02T10:25:32.520Z,39.50
2018-09-02T10:28:00.709Z,40.30
2018-09-02T10:30:28.887Z,40.70
2018-09-02T10:32:57.683Z,39.60
2018-09-02T10:35:26.759Z,40.20
2018-09-02T10:37:54.952Z,42.50
2018-09-02T10:40:23.136Z,40.60
2018-09-02T10:42:51.917Z,42.20
2018-09-02T10:45:20.080Z,40.70
2018-09-02T10:47:48.235Z,42.20
2018-09-02T10:50:16.376Z,42.60
2018-09-02T10:52:44.544Z,39.70
2018-09-02T10:55:12.709Z,40.80
2018-09-02T10:57:40.860Z,43.60
2018-09-02T11:00:09.898Z,44.70
2018-09-02T11:02:38.307Z,46.60
2018-09-02T11:05:07.404Z,47.50
2018-09-02T11:07:35.587Z,49.50
2018-09-02T11:10:03.750Z,49.10
2018-09-02T11:12:31.899Z,50.40
2018-09-02T11:15:00.056Z,49.70
2018-09-02T11:17:28.214Z,50.20
2018-09-02T11:19:56.365Z,53.40
2018-09-02T11:22:24.516Z,51.80
2018-09-02T11:24:52.680Z,52.40
2018-09-02T11:27:20.832Z,52.40
2018-09-02T11:29:49.025Z,50.50
2018-09-02T11:32:17.214Z,48.50
2018-09-02T11:34:45.376Z,47.60
2018-09-02T11:37:13.517Z,50.10
2018-09-02T11:39:41.666Z,49.40
2018-09-02T11:42:09.900Z,50.60
2018-09-02T11:44:38.064Z,50.10
2018-09-02T11:47:06.214Z,49.50
2018-09-02T11:49:34.401Z,52.50
2018-09-02T11:52:02.546Z,51.50
2018-09-02T11:54:30.696Z,52.00
2018-09-02T11:56:58.864Z,51.10
2018-09-02T11:59:27.023Z,51.30
2018-09-02T12:01:55.173Z,52.40
2018-09-02T12:04:23.348Z,51.50
2018-09-02T12:06:51.496Z,51.00
2018-09-02T12:09:19.645Z,51.30
2018-09-02T12:11:47.898Z,51.50
2018-09-02T12:14:15.944Z,53.50
2018-09-02T12:16:44.099Z,54.10
2018-09-02T12:19:12.252Z,52.80
2018-09-02T12:21:40.408Z,53.40
2018-09-02T12:24:08.565Z,53.00
2018-09-02T12:26:36.829Z,53.70
2018-09-02T12:29:04.976Z,53.50
2018-09-02T12:31:33.216Z,53.90
2018-09-02T12:34:01.284Z,53.30
2018-09-02T12:36:29.459Z,53.20
2018-09-02T12:38:57.708Z,52.80
2018-09-02T12:41:25.859Z,51.90
2018-09-02T12:43:54.020Z,51.80
2018-09-02T12:46:22.181Z,52.20
2018-09-02T12:48:50.404Z,52.30
2018-09-02T12:51:18.500Z,53.90
2018-09-02T12:53:46.657Z,53.70
2018-09-02T12:56:14.808Z,53.30
2018-09-02T12:58:42.962Z,53.30
2018-09-02T13:01:11.179Z,52.90
2018-09-02T13:03:39.276Z,53.80
2018-09-02T13:06:07.417Z,54.80
2018-09-02T13:08:35.585Z,52.90
2018-09-02T13:11:03.728Z,52.50
2018-09-02T13:13:31.885Z,52.80
2018-09-02T13:16:00.069Z,57.60
2018-09-02T13:18:28.212Z,60.70
2018-09-02T13:20:56.368Z,52.60
2018-09-02T13:23:24.551Z,53.40
2018-09-02T13:25:52.692Z,52.90
2018-09-02T13:28:20.844Z,53.50
2018-09-02T13:30:49.035Z,53.70
2018-09-02T13:33:17.190Z,52.80
2018-09-02T13:35:45.346Z,54.20
2018-09-02T13:38:13.537Z,53.60
2018-09-02T13:40:41.693Z,54.40
2018-09-02T13:43:09.888Z,54.40
2018-09-02T13:45:38.128Z,54.60
2018-09-02T13:48:06.282Z,53.80
2018-09-02T13:50:34.464Z,53.90
2018-09-02T13:53:02.626Z,54.90
2018-09-02T13:55:30.776Z,54.10
2018-09-02T13:57:58.920Z,53.60
2018-09-02T14:00:27.081Z,53.90
2018-09-02T14:02:55.228Z,53.70
2018-09-02T14:05:23.384Z,54.30
2018-09-02T14:07:51.599Z,55.40
2018-09-02T14:10:19.732Z,55.00
2018-09-02T14:12:47.894Z,54.00
2018-09-02T14:15:16.039Z,54.70
2018-09-02T14:17:44.440Z,54.30
2018-09-02T14:20:12.620Z,54.10
2018-09-02T14:22:40.825Z,54.40
2018-09-02T14:25:08.987Z,55.30
2018-09-02T14:27:37.195Z,55.40
2018-09-02T14:30:05.467Z,54.00
2018-09-02T14:32:33.644Z,54.20
2018-09-02T14:35:01.804Z,55.50
2018-09-02T14:37:29.987Z,56.50
2018-09-02T14:39:58.142Z,56.40
2018-09-02T14:42:26.303Z,54.70
2018-09-02T14:44:54.464Z,57.10
2018-09-02T14:47:22.600Z,56.50
2018-09-02T14:49:50.760Z,54.50
2018-09-02T14:52:18.906Z,56.60
2018-09-02T14:54:47.060Z,56.40
2018-09-02T14:57:15.227Z,56.20
2018-09-02T14:59:43.396Z,56.20
2018-09-02T15:02:11.644Z,55.90
2018-09-02T15:04:39.800Z,55.30
2018-09-02T15:07:07.956Z,55.70
2018-09-02T15:09:36.107Z,54.50
2018-09-02T15:12:04.273Z,53.20
2018-09-02T15:14:32.416Z,53.30
2018-09-02T15:17:00.562Z,56.00
2018-09-02T15:19:28.732Z,55.80
2018-09-02T15:21:57.385Z,56.40
2018-09-02T15:24:25.618Z,55.30
2018-09-02T15:26:53.827Z,55.90
2018-09-02T15:29:21.968Z,55.80
2018-09-02T15:31:51.518Z,56.40
2018-09-02T15:34:19.738Z,56.90
2018-09-02T15:36:47.980Z,56.00
2018-09-02T15:39:16.260Z,56.60
2018-09-02T15:41:44.890Z,56.90
2018-09-02T15:44:13.228Z,57.90
2018-09-02T15:46:41.331Z,57.90
2018-09-02T15:49:09.564Z,57.50
2018-09-02T15:51:37.773Z,57.20
2018-09-02T15:54:06.013Z,57.40
2018-09-02T15:56:34.327Z,58.20
2018-09-02T15:59:02.576Z,58.20
2018-09-02T16:01:30.891Z,58.60
2018-09-02T16:03:59.170Z,59.20
2018-09-02T16:06:27.391Z,59.70
2018-09-02T16:08:55.625Z,59.90
2018-09-02T16:11:23.874Z,60.00
2018-09-02T16:13:52.147Z,60.00
2018-09-02T16:16:20.379Z,59.60
2018-09-02T16:18:48.600Z,60.50
2018-09-02T16:21:16.835Z,59.80
2018-09-02T16:23:45.063Z,59.70
2018-09-02T16:26:13.369Z,59.90
2018-09-02T16:28:41.583Z,59.50
2018-09-02T16:31:09.855Z,60.40
2018-09-02T16:33:38.197Z,60.10
2018-09-02T16:36:06.480Z,59.80
2018-09-02T16:38:34.702Z,60.50
2018-09-02T16:41:03.001Z,60.70
2018-09-02T16:43:31.202Z,60.10
2018-09-02T16:45:59.469Z,61.10
2018-09-02T16:48:27.724Z,61.30
2018-09-02T16:50:56.060Z,61.00
2018-09-02T16:53:24.276Z,62.40
2018-09-02T16:55:52.523Z,61.80
2018-09-02T16:58:20.847Z,61.70
2018-09-02T17:00:49.288Z,62.00
2018-09-02T17:03:17.565Z,63.00
2018-09-02T17:05:45.787Z,63.50
2018-09-02T17:08:14.144Z,64.50
2018-09-02T17:13:10.874Z,65.30
2018-09-02T17:15:39.153Z,67.10
2018-09-02T17:18:07.466Z,66.60
2018-09-02T17:20:37.996Z,67.00
2018-09-02T17:23:11.029Z,67.60
2018-09-02T17:25:39.836Z,67.60
2018-09-02T17:28:08.028Z,68.30
2018-09-02T17:33:05.261Z,67.80
2018-09-02T17:35:33.463Z,69.00
2018-09-02T17:38:01.647Z,68.60
2018-09-02T17:40:30.010Z,69.10
2018-09-02T17:42:58.218Z,68.70
2018-09-02T17:45:26.472Z,68.20
2018-09-02T17:47:54.926Z,68.10
2018-09-02T17:50:23.293Z,67.80
2018-09-02T17:52:51.528Z,68.00
2018-09-02T17:55:19.769Z,67.60
2018-09-02T17:57:48.056Z,68.20
2018-09-02T18:00:25.758Z,68.40
2018-09-02T18:02:53.912Z,72.10
2018-09-02T18:05:22.068Z,69.00
2018-09-02T18:07:50.240Z,69.50
2018-09-02T18:10:18.621Z,70.50
2018-09-02T18:12:46.768Z,71.60
2018-09-02T18:15:14.964Z,71.20
2018-09-02T18:17:43.136Z,73.20
2018-09-02T18:20:12.567Z,72.50
2018-09-02T18:22:40.724Z,71.30
2018-09-02T18:25:09.973Z,71.70
2018-09-02T18:27:40.182Z,72.00
2018-09-02T18:30:08.406Z,71.70
2018-09-02T18:35:10.799Z,72.20
2018-09-02T18:37:38.932Z,73.00
2018-09-02T18:40:07.196Z,73.00
2018-09-02T18:42:35.420Z,72.10
2018-09-02T18:45:03.589Z,72.00
2018-09-02T18:47:31.768Z,72.40
2018-09-02T18:49:59.944Z,72.60
2018-09-02T18:52:28.099Z,72.70
2018-09-02T18:54:57.053Z,72.50
2018-09-02T18:57:25.236Z,72.80
2018-09-02T18:59:53.384Z,72.70
2018-09-02T19:02:21.555Z,73.10
2018-09-02T19:04:49.712Z,73.30
2018-09-02T19:07:17.859Z,73.60
2018-09-02T19:09:46.089Z,73.80
2018-09-02T19:12:14.169Z,74.50
2018-09-02T19:14:42.390Z,74.60
2018-09-02T19:17:10.509Z,74.40
2018-09-02T19:19:38.672Z,74.80
2018-09-02T19:22:06.835Z,75.40
2018-09-02T19:24:35.528Z,74.50
2018-09-02T19:27:03.724Z,75.50
2018-09-02T19:29:31.879Z,75.50
2018-09-02T19:32:00.036Z,76.00
2018-09-02T19:34:28.194Z,76.20
2018-09-02T19:36:56.389Z,75.60
2018-09-02T19:39:24.553Z,76.40
2018-09-02T19:41:52.754Z,76.70
2018-09-02T19:44:20.909Z,76.70
2018-09-02T19:46:49.074Z,76.80
2018-09-02T19:49:17.250Z,77.00
2018-09-02T19:51:45.412Z,77.50
2018-09-02T19:54:13.620Z,78.30
2018-09-02T19:56:41.786Z,79.20
2018-09-02T19:59:10.004Z,79.00
2018-09-02T20:01:38.212Z,79.00
2018-09-02T20:04:06.613Z,78.60
2018-09-02T20:06:34.796Z,78.80
2018-09-02T20:09:03.053Z,79.40
2018-09-02T20:11:31.229Z,79.80
2018-09-02T20:13:59.407Z,79.60
2018-09-02T20:16:27.589Z,80.00
2018-09-02T20:18:55.791Z,80.90
2018-09-02T20:21:23.925Z,81.40
2018-09-02T20:23:52.195Z,81.60
2018-09-02T20:26:20.278Z,81.60
2018-09-02T20:28:48.492Z,82.40
2018-09-02T20:31:16.640Z,82.10
2018-09-02T20:33:44.800Z,82.20
2018-09-02T20:36:12.972Z,82.40
2018-09-02T20:38:41.124Z,83.00
2018-09-02T20:41:09.300Z,83.00
2018-09-02T20:43:37.460Z,83.40
2018-09-02T20:46:05.828Z,84.00
2018-09-02T20:48:34.013Z,83.40
2018-09-02T20:51:02.195Z,83.00
2018-09-02T20:53:30.320Z,83.30
2018-09-02T20:55:58.487Z,83.20
2018-09-02T20:58:26.641Z,83.90
2018-09-02T21:00:54.835Z,84.50
2018-09-02T21:03:23.008Z,85.20
2018-09-02T21:05:51.205Z,86.20
2018-09-02T21:08:19.421Z,85.00
2018-09-02T21:10:47.548Z,85.40
2018-09-02T21:13:15.706Z,85.90
2018-09-02T21:15:43.857Z,86.50
2018-09-02T21:18:12.019Z,86.50
2018-09-02T21:20:40.292Z,88.00
2018-09-02T21:23:08.445Z,88.00
2018-09-02T21:25:36.600Z,89.00
2018-09-02T21:28:04.753Z,88.80
2018-09-02T21:30:32.909Z,88.90
2018-09-02T21:33:01.060Z,88.80
2018-09-02T21:35:29.224Z,88.50
2018-09-02T21:37:57.392Z,88.70
2018-09-02T21:40:25.552Z,89.40
2018-09-02T21:42:53.708Z,89.90
2018-09-02T21:45:21.854Z,90.00
2018-09-02T21:47:50.016Z,90.40
2018-09-02T21:50:18.180Z,90.50
2018-09-02T21:52:46.334Z,90.50
2018-09-02T21:55:14.487Z,90.80
2018-09-02T21:57:42.653Z,90.90
2018-09-02T22:00:12.802Z,90.80
2018-09-02T22:02:41.084Z,91.10
2018-09-02T22:05:10.965Z,91.20
2018-09-02T22:07:39.636Z,91.70
2018-09-02T22:10:07.885Z,91.80
2018-09-02T22:12:36.036Z,91.70
2018-09-02T22:15:04.466Z,91.80
2018-09-02T22:17:32.628Z,92.10
2018-09-02T22:20:00.781Z,92.10
2018-09-02T22:22:29.116Z,93.30
2018-09-02T22:24:57.283Z,93.20
2018-09-02T22:27:25.444Z,93.60
2018-09-02T22:29:53.609Z,93.80
2018-09-02T22:32:21.803Z,93.80
2018-09-02T22:34:49.973Z,95.50
2018-09-02T22:37:18.132Z,95.10
2018-09-02T22:39:46.293Z,96.20
2018-09-02T22:42:14.440Z,95.20
2018-09-02T22:44:42.594Z,94.40
2018-09-02T22:47:11.085Z,94.50
2018-09-02T22:49:39.231Z,95.70
2018-09-02T22:52:07.384Z,96.90
2018-09-02T22:54:35.538Z,95.70
2018-09-02T22:57:03.703Z,96.00
2018-09-02T22:59:31.856Z,95.70
2018-09-02T23:02:00.028Z,95.70
2018-09-02T23:04:28.177Z,95.20
2018-09-02T23:06:56.329Z,95.80
2018-09-02T23:09:24.504Z,95.50
2018-09-02T23:11:52.664Z,96.80
2018-09-02T23:14:20.824Z,95.80
2018-09-02T23:16:48.973Z,97.70
2018-09-02T23:19:17.171Z,96.00
2018-09-02T23:21:45.286Z,97.80
2018-09-02T23:24:13.427Z,97.60
2018-09-02T23:26:41.593Z,97.00
2018-09-02T23:29:09.743Z,97.30
2018-09-02T23:31:37.907Z,99.10
2018-09-02T23:34:06.104Z,98.90
2018-09-02T23:36:34.273Z,99.30
2018-09-02T23:39:02.421Z,98.30
2018-09-02T23:41:30.624Z,98.40
2018-09-02T23:43:58.778Z,97.90
2018-09-02T23:46:26.937Z,97.30
2018-09-02T23:48:55.152Z,97.80
2018-09-02T23:51:23.292Z,97.90
2018-09-02T23:53:51.448Z,97.90
2018-09-02T23:56:19.616Z,99.10
2018-09-02T23:58:47.763Z,99.90
